Time;durP1;ratioP1;P1;durP2;ratioP2;P2;SDS_P1;SDS_P2;PMS_P1;PMS_P2;Temp;Humidity;BMP_temperature;BMP_pressure;BME280_temperature;BME280_humidity;BME280_pressure;Samples;Min_cycle;Max_cycle;Signal;HPM_P1;HPM_P2
2023/07/02 00:03:00;;;;;;;30.55;23.90;;;;;;;;;;6242344;28;20076;-78
2023/07/02 00:06:01;;;;;;;24.98;21.15;;;;;;;;;;6242566;28;20057;-78
2023/07/02 00:09:04;;;;;;;21.00;17.55;;;;;;;;;;6240991;28;20072;-78
2023/07/02 00:12:06;;;;;;;20.80;17.65;;;;;;;;;;6244908;28;20049;-78
2023/07/02 00:15:08;;;;;;;19.02;16.90;;;;;;;;;;6242534;28;20053;-77
2023/07/02 00:18:09;;;;;;;19.95;17.40;;;;;;;;;;6242361;28;20053;-77
2023/07/02 00:21:13;;;;;;;21.27;18.10;;;;;;;;;;6243202;28;21418;-78
2023/07/02 00:24:16;;;;;;;20.48;17.23;;;;;;;;;;6242954;28;20299;-78
2023/07/02 00:27:17;;;;;;;21.63;17.48;;;;;;;;;;6241550;28;20091;-78
2023/07/02 00:30:19;;;;;;;20.95;18.75;;;;;;;;;;6240193;28;20064;-78
2023/07/02 00:33:20;;;;;;;21.92;19.55;;;;;;;;;;6240485;28;20068;-78
2023/07/02 00:36:22;;;;;;;20.38;18.23;;;;;;;;;;6242836;28;20245;-79
2023/07/02 00:39:25;;;;;;;20.30;17.55;;;;;;;;;;6243427;28;20061;-77
2023/07/02 00:42:29;;;;;;;22.23;18.63;;;;;;;;;;6244778;28;20314;-78
2023/07/02 00:45:31;;;;;;;20.75;18.38;;;;;;;;;;6239502;28;20233;-78
2023/07/02 00:48:33;;;;;;;23.88;19.70;;;;;;;;;;6243126;28;20240;-79
2023/07/02 00:51:34;;;;;;;21.60;19.17;;;;;;;;;;6240538;28;20064;-78
2023/07/02 00:54:37;;;;;;;23.48;19.75;;;;;;;;;;6243514;28;20069;-78
2023/07/02 00:57:40;;;;;;;23.77;21.13;;;;;;;;;;6242466;28;20469;-78
2023/07/02 01:00:42;;;;;;;26.13;20.83;;;;;;;;;;6241741;28;20069;-78
2023/07/02 01:03:53;;;;;;;22.80;19.67;;;;;;;;;;6243166;28;20068;-78
2023/07/02 01:06:57;;;;;;;23.70;20.88;;;;;;;;;;6242681;28;20065;-79
2023/07/02 01:10:00;;;;;;;25.00;20.13;;;;;;;;;;6241900;28;20086;-78
2023/07/02 01:13:04;;;;;;;24.00;21.33;;;;;;;;;;6240934;28;20049;-78
2023/07/02 01:16:06;;;;;;;23.25;20.35;;;;;;;;;;6242065;28;20449;-79
2023/07/02 01:19:11;;;;;;;22.92;20.50;;;;;;;;;;6242123;28;20072;-79
2023/07/02 01:22:14;;;;;;;24.48;20.88;;;;;;;;;;6240895;28;20241;-78
2023/07/02 01:25:17;;;;;;;22.70;20.20;;;;;;;;;;6244279;28;20050;-78
2023/07/02 01:28:18;;;;;;;25.83;21.00;;;;;;;;;;6241443;28;20260;-78
2023/07/02 01:31:24;;;;;;;22.98;20.52;;;;;;;;;;6239392;28;20084;-78
2023/07/02 01:34:26;;;;;;;26.27;21.83;;;;;;;;;;6243219;28;20053;-78
2023/07/02 01:37:36;;;;;;;26.20;21.73;;;;;;;;;;6239462;28;20050;-78
2023/07/02 01:40:38;;;;;;;25.45;21.15;;;;;;;;;;6240207;28;20148;-78
2023/07/02 01:43:39;;;;;;;24.70;21.98;;;;;;;;;;6241554;28;20049;-78
2023/07/02 01:46:41;;;;;;;26.77;21.20;;;;;;;;;;6243433;28;20046;-78
2023/07/02 01:49:42;;;;;;;31.25;21.83;;;;;;;;;;6244006;28;20057;-78
2023/07/02 01:52:45;;;;;;;25.95;21.50;;;;;;;;;;6241341;28;20060;-78
2023/07/02 01:55:47;;;;;;;22.73;19.77;;;;;;;;;;6239858;28;20068;-78
2023/07/02 01:58:48;;;;;;;22.98;19.20;;;;;;;;;;6242867;28;20257;-78
2023/07/02 02:01:49;;;;;;;23.02;20.02;;;;;;;;;;6241823;28;20057;-78
2023/07/02 02:04:51;;;;;;;22.17;19.80;;;;;;;;;;6240059;28;20069;-78
2023/07/02 02:07:54;;;;;;;22.02;19.70;;;;;;;;;;6244173;28;20045;-78
2023/07/02 02:10:55;;;;;;;20.83;17.80;;;;;;;;;;6243438;28;20109;-78
2023/07/02 02:13:58;;;;;;;20.95;18.13;;;;;;;;;;6243550;28;20085;-79
2023/07/02 02:16:59;;;;;;;21.83;18.88;;;;;;;;;;6244502;28;20065;-78
2023/07/02 02:20:00;;;;;;;19.17;16.65;;;;;;;;;;6239409;28;20057;-78
2023/07/02 02:23:03;;;;;;;20.45;17.02;;;;;;;;;;6242516;28;20052;-78
2023/07/02 02:26:05;;;;;;;18.83;16.33;;;;;;;;;;6241008;28;20225;-78
2023/07/02 02:29:06;;;;;;;19.23;15.98;;;;;;;;;;6239568;28;20080;-78
2023/07/02 02:32:08;;;;;;;20.13;15.98;;;;;;;;;;6241000;28;20058;-79
2023/07/02 02:35:09;;;;;;;20.63;16.73;;;;;;;;;;6242061;28;20050;-79
2023/07/02 02:38:14;;;;;;;19.25;15.65;;;;;;;;;;6242492;28;20066;-78
2023/07/02 02:41:15;;;;;;;19.92;16.35;;;;;;;;;;6233839;28;20357;-78
2023/07/02 02:44:17;;;;;;;19.77;16.13;;;;;;;;;;6243010;28;20042;-78
2023/07/02 02:47:18;;;;;;;16.98;15.18;;;;;;;;;;6244520;28;20060;-79
2023/07/02 02:50:20;;;;;;;17.50;15.38;;;;;;;;;;6246664;28;20054;-78
2023/07/02 02:53:23;;;;;;;20.05;15.70;;;;;;;;;;6243543;28;20272;-79
2023/07/02 02:56:25;;;;;;;18.00;14.65;;;;;;;;;;6246045;28;20411;-78
2023/07/02 02:59:26;;;;;;;17.88;14.55;;;;;;;;;;6242930;28;20060;-78
2023/07/02 03:02:28;;;;;;;19.17;14.35;;;;;;;;;;6244785;28;20057;-78
2023/07/02 03:05:29;;;;;;;17.70;15.23;;;;;;;;;;6242918;28;20038;-78
2023/07/02 03:08:32;;;;;;;15.70;13.27;;;;;;;;;;6246329;28;20080;-78
2023/07/02 03:11:34;;;;;;;17.77;14.52;;;;;;;;;;6246271;28;20046;-78
2023/07/02 03:14:35;;;;;;;18.05;14.68;;;;;;;;;;6244652;28;20060;-78
2023/07/02 03:17:37;;;;;;;16.83;13.57;;;;;;;;;;6244211;28;20052;-78
2023/07/02 03:20:38;;;;;;;18.10;14.40;;;;;;;;;;6244385;28;20057;-76
2023/07/02 03:23:41;;;;;;;20.08;14.32;;;;;;;;;;6244230;28;20053;-78
2023/07/02 03:26:43;;;;;;;17.10;12.98;;;;;;;;;;6246861;28;20061;-78
2023/07/02 03:29:44;;;;;;;17.55;13.50;;;;;;;;;;6246350;28;20052;-78
2023/07/02 03:32:45;;;;;;;16.52;13.48;;;;;;;;;;6243989;28;20061;-78
2023/07/02 03:35:47;;;;;;;17.15;13.10;;;;;;;;;;6244876;28;20057;-78
2023/07/02 03:38:50;;;;;;;17.67;13.60;;;;;;;;;;6244310;28;20100;-78
2023/07/02 03:41:51;;;;;;;17.13;14.00;;;;;;;;;;6246562;28;20341;-78
2023/07/02 03:44:53;;;;;;;17.85;13.38;;;;;;;;;;6244692;28;20069;-78
2023/07/02 03:47:54;;;;;;;16.75;13.10;;;;;;;;;;6243686;28;20062;-77
2023/07/02 03:50:56;;;;;;;17.60;13.85;;;;;;;;;;6243025;28;20057;-78
2023/07/02 03:53:59;;;;;;;16.20;13.02;;;;;;;;;;6244448;28;20054;-78
2023/07/02 03:57:00;;;;;;;;;;;;;;;;;;6243331;28;20060;-78
2023/07/02 04:00:04;;;;;;;14.93;11.77;;;;;;;;;;6246420;28;20086;-78
2023/07/02 04:03:06;;;;;;;14.70;11.80;;;;;;;;;;6243833;28;20065;-78
2023/07/02 04:06:07;;;;;;;14.63;11.98;;;;;;;;;;6243457;28;20057;-78
2023/07/02 04:09:10;;;;;;;14.38;11.15;;;;;;;;;;6242238;28;20049;-78
2023/07/02 04:12:12;;;;;;;14.05;11.65;;;;;;;;;;6243306;28;20265;-78
2023/07/02 04:15:13;;;;;;;16.55;11.90;;;;;;;;;;6242048;28;20057;-78
2023/07/02 04:18:14;;;;;;;15.27;11.50;;;;;;;;;;6241811;28;20083;-78
2023/07/02 04:21:16;;;;;;;15.15;11.73;;;;;;;;;;6241628;28;20088;-78
2023/07/02 04:24:19;;;;;;;13.82;11.27;;;;;;;;;;6244616;28;20050;-78
2023/07/02 04:27:20;;;;;;;14.23;11.02;;;;;;;;;;6242602;28;20057;-78
2023/07/02 04:30:22;;;;;;;15.23;11.77;;;;;;;;;;6242192;28;20057;-78
2023/07/02 04:33:23;;;;;;;15.98;12.52;;;;;;;;;;6241245;28;20049;-78
2023/07/02 04:36:24;;;;;;;17.92;13.43;;;;;;;;;;6241735;28;20100;-78
2023/07/02 04:39:27;;;;;;;19.98;13.80;;;;;;;;;;6243355;28;20136;-78
2023/07/02 04:42:31;;;;;;;22.27;14.73;;;;;;;;;;6243438;28;20050;-78
2023/07/02 04:45:36;;;;;;;18.42;14.43;;;;;;;;;;6243302;28;20054;-78
2023/07/02 04:48:37;;;;;;;19.25;15.50;;;;;;;;;;6240452;28;20049;-78
2023/07/02 04:51:39;;;;;;;21.05;15.90;;;;;;;;;;6240605;28;20054;-79
2023/07/02 04:54:41;;;;;;;19.05;15.75;;;;;;;;;;6246174;28;20057;-78
2023/07/02 04:57:44;;;;;;;20.05;16.00;;;;;;;;;;6241861;28;20341;-78
2023/07/02 05:00:45;;;;;;;23.15;16.67;;;;;;;;;;6244161;28;20057;-78
2023/07/02 05:03:47;;;;;;;20.65;16.85;;;;;;;;;;6242431;28;20239;-78
2023/07/02 05:06:48;;;;;;;22.30;16.17;;;;;;;;;;6239206;28;20057;-78
2023/07/02 05:09:52;;;;;;;21.90;16.27;;;;;;;;;;6241670;28;20222;-78
2023/07/02 05:12:54;;;;;;;21.05;17.42;;;;;;;;;;6242484;28;20112;-78
2023/07/02 05:15:55;;;;;;;25.20;18.90;;;;;;;;;;6243656;28;20065;-78
2023/07/02 05:18:57;;;;;;;22.45;17.35;;;;;;;;;;6241575;28;20380;-78
2023/07/02 05:21:58;;;;;;;22.65;16.92;;;;;;;;;;6246136;28;20072;-77
2023/07/02 05:25:01;;;;;;;21.55;16.80;;;;;;;;;;6240739;28;20053;-78
2023/07/02 05:28:02;;;;;;;22.23;16.88;;;;;;;;;;6239360;28;20434;-78
2023/07/02 05:31:04;;;;;;;25.17;16.50;;;;;;;;;;6242933;28;20056;-78
2023/07/02 05:34:05;;;;;;;21.05;16.10;;;;;;;;;;6242460;28;20056;-78
2023/07/02 05:37:07;;;;;;;22.15;17.40;;;;;;;;;;6238057;28;20353;-78
2023/07/02 05:40:10;;;;;;;23.42;18.38;;;;;;;;;;6242674;28;20045;-78
2023/07/02 05:43:12;;;;;;;19.45;16.23;;;;;;;;;;6243511;28;20057;-78
2023/07/02 05:46:14;;;;;;;23.10;18.77;;;;;;;;;;6238572;28;20050;-78
2023/07/02 05:49:15;;;;;;;25.60;18.50;;;;;;;;;;6241487;28;20052;-78
2023/07/02 05:52:18;;;;;;;23.50;18.85;;;;;;;;;;6244176;28;20054;-78
2023/07/02 05:55:21;;;;;;;24.67;18.55;;;;;;;;;;6240247;28;20042;-78
2023/07/02 05:58:23;;;;;;;23.63;17.70;;;;;;;;;;6241143;28;20179;-78
2023/07/02 06:01:24;;;;;;;22.35;16.48;;;;;;;;;;6240788;28;20037;-78
2023/07/02 06:04:26;;;;;;;21.85;17.00;;;;;;;;;;6243727;28;20337;-78
2023/07/02 06:07:27;;;;;;;30.98;19.67;;;;;;;;;;6237935;28;20084;-78
2023/07/02 06:10:30;;;;;;;25.60;20.15;;;;;;;;;;6243581;28;20049;-78
2023/07/02 06:13:32;;;;;;;24.45;18.55;;;;;;;;;;6240340;28;20057;-76
2023/07/02 06:16:33;;;;;;;26.30;20.08;;;;;;;;;;6239298;28;20386;-78
2023/07/02 06:19:35;;;;;;;23.27;19.77;;;;;;;;;;6241084;28;20049;-78
2023/07/02 06:22:36;;;;;;;27.40;21.42;;;;;;;;;;6245363;28;20058;-77
2023/07/02 06:25:39;;;;;;;24.70;20.73;;;;;;;;;;6247538;28;20396;-78
2023/07/02 06:28:40;;;;;;;30.35;23.40;;;;;;;;;;6245145;28;20099;-78
2023/07/02 06:31:42;;;;;;;28.63;21.73;;;;;;;;;;6245480;28;20056;-78
2023/07/02 06:34:43;;;;;;;25.70;19.40;;;;;;;;;;6248530;28;20260;-78
2023/07/02 06:37:45;;;;;;;30.80;24.38;;;;;;;;;;6243350;28;20107;-78
2023/07/02 06:40:49;;;;;;;29.20;24.10;;;;;;;;;;6242523;28;20057;-79
2023/07/02 06:43:51;;;;;;;32.42;24.02;;;;;;;;;;6244338;28;20103;-78
2023/07/02 06:46:52;;;;;;;34.70;25.60;;;;;;;;;;6246064;28;20061;-78
2023/07/02 06:49:54;;;;;;;28.05;23.00;;;;;;;;;;6242101;28;20254;-78
2023/07/02 06:52:55;;;;;;;26.40;20.60;;;;;;;;;;6242417;28;20061;-78
2023/07/02 06:55:58;;;;;;;26.33;20.50;;;;;;;;;;6247017;28;20057;-78
2023/07/02 06:58:59;;;;;;;26.05;20.98;;;;;;;;;;6246244;28;20072;-78
2023/07/02 07:02:01;;;;;;;29.30;22.88;;;;;;;;;;6244386;28;20062;-78
2023/07/02 07:05:04;;;;;;;27.50;22.17;;;;;;;;;;6245761;28;20057;-78
2023/07/02 07:08:05;;;;;;;25.75;21.08;;;;;;;;;;6246193;28;20050;-78
2023/07/02 07:11:08;;;;;;;32.90;25.15;;;;;;;;;;6244609;28;20058;-79
2023/07/02 07:14:09;;;;;;;33.83;24.77;;;;;;;;;;6245806;28;20041;-78
2023/07/02 07:17:11;;;;;;;35.70;27.80;;;;;;;;;;6245852;28;20050;-78
2023/07/02 07:20:13;;;;;;;30.52;24.85;;;;;;;;;;6243966;28;20068;-78
2023/07/02 07:23:16;;;;;;;30.93;24.67;;;;;;;;;;6243374;28;20047;-78
2023/07/02 07:26:18;;;;;;;32.20;24.92;;;;;;;;;;6243424;28;20383;-78
2023/07/02 07:29:20;;;;;;;28.42;23.55;;;;;;;;;;6238711;28;20132;-78
2023/07/02 07:32:21;;;;;;;29.02;21.15;;;;;;;;;;6244366;28;20069;-78
2023/07/02 07:35:23;;;;;;;25.63;20.20;;;;;;;;;;6244268;28;20053;-78
2023/07/02 07:38:24;;;;;;;28.52;21.75;;;;;;;;;;6246384;28;20253;-78
2023/07/02 07:41:27;;;;;;;21.73;18.65;;;;;;;;;;6242038;28;20061;-78
2023/07/02 07:44:29;;;;;;;32.17;19.33;;;;;;;;;;6244654;28;20060;-78
2023/07/02 07:47:30;;;;;;;41.13;21.08;;;;;;;;;;6245554;28;20049;-76
2023/07/02 07:50:31;;;;;;;21.05;16.92;;;;;;;;;;6242843;28;20555;-77
2023/07/02 07:53:33;;;;;;;22.08;16.90;;;;;;;;;;6242827;28;20077;-77
2023/07/02 07:56:36;;;;;;;18.88;14.73;;;;;;;;;;6245047;28;20265;-81
2023/07/02 07:59:37;;;;;;;18.23;13.30;;;;;;;;;;6247779;28;20055;-79
2023/07/02 08:02:39;;;;;;;13.20;11.20;;;;;;;;;;6243202;28;20057;-81
2023/07/02 08:05:41;;;;;;;17.90;13.52;;;;;;;;;;6243496;28;20384;-80
2023/07/02 08:08:42;;;;;;;16.77;12.95;;;;;;;;;;6244768;28;20053;-80
2023/07/02 08:11:45;;;;;;;11.45;8.43;;;;;;;;;;6244275;28;20384;-80
2023/07/02 08:14:47;;;;;;;9.93;8.30;;;;;;;;;;6242998;28;20057;-80
2023/07/02 08:17:48;;;;;;;10.82;7.13;;;;;;;;;;6242978;28;20314;-80
2023/07/02 08:20:50;;;;;;;11.43;8.32;;;;;;;;;;6239703;28;20058;-80
2023/07/02 08:23:51;;;;;;;8.68;7.15;;;;;;;;;;6241412;28;20621;-81
2023/07/02 08:26:54;;;;;;;10.63;7.60;;;;;;;;;;6243394;28;20329;-80
2023/07/02 08:29:55;;;;;;;9.02;5.43;;;;;;;;;;6245821;28;20053;-80
2023/07/02 08:32:57;;;;;;;8.95;5.88;;;;;;;;;;6243324;28;20057;-80
2023/07/02 08:36:00;;;;;;;7.65;5.50;;;;;;;;;;6242263;28;20245;-80
2023/07/02 08:39:03;;;;;;;6.28;4.53;;;;;;;;;;6244687;28;20061;-80
2023/07/02 08:42:06;;;;;;;5.53;4.40;;;;;;;;;;6247170;28;20049;-80
2023/07/02 08:45:08;;;;;;;6.40;4.65;;;;;;;;;;6243498;28;20053;-79
2023/07/02 08:48:11;;;;;;;5.95;4.45;;;;;;;;;;6245792;28;20087;-79
2023/07/02 08:51:12;;;;;;;6.63;4.85;;;;;;;;;;6244964;28;20054;-78
2023/07/02 08:54:14;;;;;;;6.07;4.57;;;;;;;;;;6245785;28;20042;-77
2023/07/02 08:57:17;;;;;;;5.47;4.47;;;;;;;;;;6248416;28;20056;-78
2023/07/02 09:00:18;;;;;;;4.82;3.60;;;;;;;;;;6251613;28;20076;-78
2023/07/02 09:03:20;;;;;;;7.35;3.92;;;;;;;;;;6244707;28;20068;-77
2023/07/02 09:06:21;;;;;;;5.13;3.88;;;;;;;;;;6251897;28;20080;-77
2023/07/02 09:09:23;;;;;;;6.15;3.90;;;;;;;;;;6242898;28;20300;-77
2023/07/02 09:12:27;;;;;;;4.45;3.85;;;;;;;;;;6245507;28;20226;-77
2023/07/02 09:15:35;;;;;;;5.30;3.65;;;;;;;;;;6245539;28;20054;-78
2023/07/02 09:18:36;;;;;;;6.15;4.53;;;;;;;;;;6246570;28;20064;-78
2023/07/02 09:21:43;;;;;;;5.55;4.10;;;;;;;;;;6243893;28;20053;-78
2023/07/02 09:24:51;;;;;;;6.55;4.25;;;;;;;;;;6250527;28;20049;-77
2023/07/02 09:27:54;;;;;;;4.70;3.83;;;;;;;;;;6244683;28;20095;-79
2023/07/02 09:30:56;;;;;;;6.32;4.40;;;;;;;;;;6245036;28;20124;-77
2023/07/02 09:34:02;;;;;;;4.68;4.13;;;;;;;;;;6244053;28;20046;-76
2023/07/02 09:37:04;;;;;;;5.35;3.80;;;;;;;;;;6247027;28;20057;-77
2023/07/02 09:40:08;;;;;;;7.28;3.75;;;;;;;;;;6241968;28;20049;-77
2023/07/02 09:43:11;;;;;;;5.18;3.83;;;;;;;;;;6241584;28;20053;-76
2023/07/02 09:46:13;;;;;;;5.38;4.18;;;;;;;;;;6244386;28;20061;-77
2023/07/02 09:49:15;;;;;;;5.40;4.28;;;;;;;;;;6240677;28;20455;-77
2023/07/02 09:52:17;;;;;;;8.27;4.00;;;;;;;;;;6242577;28;20328;-77
2023/07/02 09:55:19;;;;;;;7.15;3.97;;;;;;;;;;6246534;28;20234;-77
2023/07/02 09:58:22;;;;;;;6.43;4.53;;;;;;;;;;6253737;28;20049;-78
2023/07/02 10:01:23;;;;;;;5.07;3.92;;;;;;;;;;6247001;28;20061;-78
2023/07/02 10:04:24;;;;;;;6.87;3.83;;;;;;;;;;6242128;28;20233;-78
2023/07/02 10:07:27;;;;;;;4.80;3.72;;;;;;;;;;6248458;28;20372;-78
2023/07/02 10:10:28;;;;;;;;;;;;;;;;;;6245840;28;20062;-76
2023/07/02 10:13:31;;;;;;;4.80;3.92;;;;;;;;;;6247021;28;19964;-79
2023/07/02 10:16:32;;;;;;;4.75;3.78;;;;;;;;;;6249845;28;20046;-77
2023/07/02 10:19:34;;;;;;;4.10;3.70;;;;;;;;;;6251092;28;20054;-76
2023/07/02 10:22:43;;;;;;;4.30;3.83;;;;;;;;;;6247442;28;20065;-79
2023/07/02 10:25:44;;;;;;;5.25;3.78;;;;;;;;;;6246177;28;20468;-78
2023/07/02 10:28:58;;;;;;;4.28;3.60;;;;;;;;;;6246120;28;20176;-76
2023/07/02 10:32:03;;;;;;;4.13;3.72;;;;;;;;;;6246969;28;20045;-77
2023/07/02 10:35:14;;;;;;;4.85;3.60;;;;;;;;;;6243827;28;20406;-77
2023/07/02 10:38:15;;;;;;;5.63;4.03;;;;;;;;;;6246581;28;20230;-77
2023/07/02 10:41:24;;;;;;;4.75;3.58;;;;;;;;;;6245403;28;20065;-78
2023/07/02 10:44:27;;;;;;;3.90;3.45;;;;;;;;;;6244373;28;20061;-77
2023/07/02 10:47:29;;;;;;;4.55;3.63;;;;;;;;;;6246716;28;20057;-72
2023/07/02 10:50:30;;;;;;;;;;;;;;;;;;6248367;28;20053;-79
2023/07/02 10:53:31;;;;;;;4.32;3.92;;;;;;;;;;6245255;28;19916;-77
2023/07/02 10:56:33;;;;;;;4.35;3.80;;;;;;;;;;6246296;28;20154;-78
2023/07/02 10:59:36;;;;;;;4.55;3.60;;;;;;;;;;6247710;28;20120;-77
2023/07/02 11:02:38;;;;;;;5.63;4.00;;;;;;;;;;6246598;28;20673;-76
2023/07/02 11:05:39;;;;;;;4.32;3.47;;;;;;;;;;6247138;28;20107;-79
2023/07/02 11:08:40;;;;;;;4.97;4.05;;;;;;;;;;6245484;28;20054;-77
2023/07/02 11:11:50;;;;;;;4.38;3.97;;;;;;;;;;6242897;28;20053;-77
2023/07/02 11:14:52;;;;;;;5.47;3.92;;;;;;;;;;6242140;28;20060;-76
2023/07/02 11:17:54;;;;;;;4.97;4.07;;;;;;;;;;6245767;28;20257;-76
2023/07/02 11:20:55;;;;;;;4.72;4.03;;;;;;;;;;6244003;28;20053;-77
2023/07/02 11:24:02;;;;;;;4.13;3.40;;;;;;;;;;6245867;28;20053;-77
2023/07/02 11:27:05;;;;;;;4.18;3.70;;;;;;;;;;6243261;28;20053;-76
2023/07/02 11:30:08;;;;;;;3.80;3.42;;;;;;;;;;6242367;28;20054;-78
2023/07/02 11:33:09;;;;;;;4.68;3.83;;;;;;;;;;6248303;28;20049;-82
2023/07/02 11:36:21;;;;;;;4.47;3.95;;;;;;;;;;6249791;28;20045;-82
2023/07/02 11:39:22;;;;;;;3.85;3.42;;;;;;;;;;6245196;28;20456;-83
2023/07/02 11:42:24;;;;;;;4.78;3.58;;;;;;;;;;6247602;28;20078;-82
2023/07/02 11:45:27;;;;;;;4.55;3.42;;;;;;;;;;6247160;28;20056;-81
2023/07/02 11:48:28;;;;;;;4.25;3.58;;;;;;;;;;6246808;28;20141;-81
2023/07/02 11:51:30;;;;;;;5.40;4.43;;;;;;;;;;6248707;28;20046;-82
2023/07/02 11:54:31;;;;;;;4.30;3.70;;;;;;;;;;6248420;28;20049;-83
2023/07/02 11:57:32;;;;;;;4.15;3.58;;;;;;;;;;6244492;28;20049;-86
2023/07/02 12:00:35;;;;;;;4.57;3.63;;;;;;;;;;6246089;28;20064;-82
2023/07/02 12:03:37;;;;;;;4.40;3.83;;;;;;;;;;6243823;28;20045;-82
2023/07/02 12:06:38;;;;;;;4.43;3.75;;;;;;;;;;6246358;28;20061;-82
2023/07/02 12:09:40;;;;;;;4.35;3.42;;;;;;;;;;6245499;28;20042;-81
2023/07/02 12:12:42;;;;;;;5.57;3.60;;;;;;;;;;6248726;28;20061;-81
2023/07/02 12:15:45;;;;;;;3.72;3.22;;;;;;;;;;6245706;28;20046;-82
2023/07/02 12:18:46;;;;;;;5.38;3.70;;;;;;;;;;6241399;28;20049;-81
2023/07/02 12:21:48;;;;;;;3.92;3.30;;;;;;;;;;6247445;28;20056;-82
2023/07/02 12:24:50;;;;;;;5.22;3.58;;;;;;;;;;6247391;28;20068;-81
2023/07/02 12:27:51;;;;;;;;;;;;;;;;;;6243854;28;20061;-82
2023/07/02 12:30:54;;;;;;;3.83;3.42;;;;;;;;;;6245952;28;20978;-82
2023/07/02 12:33:55;;;;;;;3.95;3.47;;;;;;;;;;6249101;28;20249;-82
2023/07/02 12:36:57;;;;;;;3.67;3.08;;;;;;;;;;6244176;28;20062;-83
2023/07/02 12:39:58;;;;;;;;;;;;;;;;;;6246221;28;20091;-82
2023/07/02 12:43:00;;;;;;;4.45;3.13;;;;;;;;;;6242812;28;19925;-82
2023/07/02 12:46:02;;;;;;;4.15;3.70;;;;;;;;;;6243417;28;20053;-82
2023/07/02 12:49:04;;;;;;;4.05;3.65;;;;;;;;;;6241617;28;20057;-82
2023/07/02 12:52:05;;;;;;;3.95;3.55;;;;;;;;;;6240699;28;20061;-82
2023/07/02 12:55:07;;;;;;;3.40;3.10;;;;;;;;;;6241635;28;20253;-82
2023/07/02 12:58:09;;;;;;;4.63;3.60;;;;;;;;;;6241658;28;20064;-82
2023/07/02 13:01:12;;;;;;;4.60;3.75;;;;;;;;;;6245624;28;20077;-82
2023/07/02 13:04:14;;;;;;;4.95;3.67;;;;;;;;;;6243441;28;20053;-82
2023/07/02 13:07:15;;;;;;;4.50;3.80;;;;;;;;;;6246747;28;20045;-81
2023/07/02 13:10:17;;;;;;;3.60;3.25;;;;;;;;;;6243721;28;20310;-82
2023/07/02 13:13:18;;;;;;;4.00;3.10;;;;;;;;;;6242475;28;20226;-82
2023/07/02 13:16:21;;;;;;;3.53;3.17;;;;;;;;;;6241218;28;20081;-84
2023/07/02 13:19:23;;;;;;;5.30;3.85;;;;;;;;;;6237392;28;20053;-86
2023/07/02 13:22:25;;;;;;;4.40;3.53;;;;;;;;;;6244972;28;20060;-84
2023/07/02 13:25:26;;;;;;;3.85;3.42;;;;;;;;;;6242598;28;20049;-82
2023/07/02 13:28:28;;;;;;;3.92;3.53;;;;;;;;;;6241506;28;20057;-82
2023/07/02 13:31:31;;;;;;;4.13;3.53;;;;;;;;;;6240458;28;20334;-85
2023/07/02 13:34:33;;;;;;;4.03;3.63;;;;;;;;;;6242058;28;20329;-83
2023/07/02 13:37:34;;;;;;;3.42;3.13;;;;;;;;;;6244462;28;20053;-85
2023/07/02 13:40:36;;;;;;;3.38;3.05;;;;;;;;;;6244381;28;20062;-83
2023/07/02 13:43:37;;;;;;;4.78;3.60;;;;;;;;;;6244659;28;20241;-83
2023/07/02 13:46:39;;;;;;;;;;;;;;;;;;6243334;28;20069;-81
2023/07/02 13:49:41;;;;;;;8.33;3.83;;;;;;;;;;6242158;28;20093;-78
2023/07/02 13:52:44;;;;;;;4.05;3.63;;;;;;;;;;6247116;28;20055;-79
2023/07/02 13:55:45;;;;;;;3.40;3.10;;;;;;;;;;6242316;28;20061;-79
2023/07/02 13:58:59;;;;;;;4.93;3.53;;;;;;;;;;6239875;28;20054;-78
2023/07/02 14:02:00;;;;;;;4.07;3.67;;;;;;;;;;6244340;28;20049;-78
2023/07/02 14:05:02;;;;;;;4.00;3.67;;;;;;;;;;6241996;28;20064;-76
2023/07/02 14:08:04;;;;;;;4.05;3.65;;;;;;;;;;6243597;28;20288;-77
2023/07/02 14:11:05;;;;;;;4.60;3.50;;;;;;;;;;6242650;28;20077;-77
2023/07/02 14:14:08;;;;;;;4.00;3.28;;;;;;;;;;6242064;28;20053;-78
2023/07/02 14:17:10;;;;;;;4.75;3.60;;;;;;;;;;6240248;28;20242;-78
2023/07/02 14:20:12;;;;;;;3.80;3.40;;;;;;;;;;6240309;28;20064;-77
2023/07/02 14:23:13;;;;;;;3.85;3.45;;;;;;;;;;6240683;28;20246;-78
2023/07/02 14:26:14;;;;;;;3.15;2.75;;;;;;;;;;6241292;28;20281;-81
2023/07/02 14:29:17;;;;;;;3.80;3.40;;;;;;;;;;6244184;28;20042;-79
2023/07/02 14:32:19;;;;;;;3.63;3.33;;;;;;;;;;6245454;28;20088;-81
2023/07/02 14:35:25;;;;;;;3.88;3.15;;;;;;;;;;6246148;28;20387;-79
2023/07/02 14:38:26;;;;;;;3.97;3.30;;;;;;;;;;6249757;28;20081;-79
2023/07/02 14:41:30;;;;;;;4.82;3.40;;;;;;;;;;6249104;28;20049;-79
2023/07/02 14:44:33;;;;;;;3.60;3.20;;;;;;;;;;6243956;28;20100;-78
2023/07/02 14:47:34;;;;;;;5.63;3.85;;;;;;;;;;6245157;28;20049;-81
2023/07/02 14:50:42;;;;;;;7.15;3.33;;;;;;;;;;6252113;28;20049;-81
2023/07/02 14:53:44;;;;;;;3.92;3.17;;;;;;;;;;6246470;28;20053;-77
2023/07/02 14:56:45;;;;;;;3.47;3.13;;;;;;;;;;6247867;28;20056;-79
2023/07/02 14:59:50;;;;;;;7.82;3.40;;;;;;;;;;6246922;28;20101;-80
2023/07/02 15:02:51;;;;;;;4.43;3.53;;;;;;;;;;6244513;28;20041;-79
2023/07/02 15:05:53;;;;;;;4.88;3.40;;;;;;;;;;6242813;28;20330;-78
2023/07/02 15:08:54;;;;;;;5.32;3.47;;;;;;;;;;6245416;28;20057;-79
2023/07/02 15:11:55;;;;;;;3.88;3.20;;;;;;;;;;6247214;28;20053;-78
2023/07/02 15:14:58;;;;;;;3.50;3.03;;;;;;;;;;6245408;28;20064;-79
2023/07/02 15:18:00;;;;;;;13.77;12.10;;;;;;;;;;6246202;28;20049;-79
2023/07/02 15:21:01;;;;;;;15.00;11.38;;;;;;;;;;6244733;28;20067;-78
2023/07/02 15:24:03;;;;;;;11.63;9.43;;;;;;;;;;6244799;28;20053;-79
2023/07/02 15:27:04;;;;;;;4.25;3.30;;;;;;;;;;6244992;28;20057;-77
2023/07/02 15:30:08;;;;;;;4.47;3.57;;;;;;;;;;6245955;28;20321;-77
2023/07/02 15:33:10;;;;;;;5.40;3.60;;;;;;;;;;6245442;28;20053;-77
2023/07/02 15:36:13;;;;;;;4.15;3.10;;;;;;;;;;6244034;28;20116;-77
2023/07/02 15:39:20;;;;;;;4.68;3.33;;;;;;;;;;6243010;28;20055;-77
2023/07/02 15:42:22;;;;;;;5.15;3.75;;;;;;;;;;6247920;28;20057;-77
2023/07/02 15:45:25;;;;;;;4.68;3.60;;;;;;;;;;6246622;28;20049;-77
2023/07/02 15:48:26;;;;;;;5.50;3.40;;;;;;;;;;6242104;28;20371;-77
2023/07/02 15:51:28;;;;;;;5.72;3.80;;;;;;;;;;6242635;28;20186;-77
2023/07/02 15:54:29;;;;;;;4.90;3.85;;;;;;;;;;6244242;28;20060;-78
2023/07/02 15:57:31;;;;;;;4.93;3.65;;;;;;;;;;6243641;28;20041;-77
2023/07/02 16:00:33;;;;;;;4.93;4.20;;;;;;;;;;6242775;28;20062;-78
2023/07/02 16:03:35;;;;;;;6.57;3.80;;;;;;;;;;6242996;28;20325;-77
2023/07/02 16:06:37;;;;;;;4.22;3.53;;;;;;;;;;6242879;28;20046;-77
2023/07/02 16:09:38;;;;;;;4.22;3.83;;;;;;;;;;6243565;28;20065;-77
2023/07/02 16:12:41;;;;;;;7.40;4.35;;;;;;;;;;6245161;28;20057;-77
2023/07/02 16:15:47;;;;;;;5.70;4.40;;;;;;;;;;6244464;28;20050;-77
2023/07/02 16:18:48;;;;;;;5.32;4.20;;;;;;;;;;6243791;28;20061;-78
2023/07/02 16:21:50;;;;;;;6.07;4.40;;;;;;;;;;6246071;28;20128;-77
2023/07/02 16:24:51;;;;;;;5.28;4.15;;;;;;;;;;6244285;28;20060;-76
2023/07/02 16:27:53;;;;;;;6.47;4.28;;;;;;;;;;6243211;28;20067;-77
2023/07/02 16:30:56;;;;;;;7.45;4.25;;;;;;;;;;6242122;28;22678;-76
2023/07/02 16:33:58;;;;;;;5.07;4.35;;;;;;;;;;6242616;28;20396;-76
2023/07/02 16:36:59;;;;;;;6.53;4.25;;;;;;;;;;6244030;28;20061;-77
2023/07/02 16:40:01;;;;;;;5.78;3.53;;;;;;;;;;6244209;28;20063;-76
2023/07/02 16:43:03;;;;;;;7.17;4.40;;;;;;;;;;6241871;28;20053;-77
2023/07/02 16:46:06;;;;;;;6.80;4.47;;;;;;;;;;6244242;28;20468;-76
2023/07/02 16:49:08;;;;;;;6.50;4.22;;;;;;;;;;6241612;28;20271;-77
2023/07/02 16:52:12;;;;;;;4.88;3.88;;;;;;;;;;6242612;28;20049;-77
2023/07/02 16:55:13;;;;;;;6.50;4.43;;;;;;;;;;6244265;28;20342;-77
2023/07/02 16:58:15;;;;;;;5.72;3.95;;;;;;;;;;6243330;28;20061;-77
2023/07/02 17:01:18;;;;;;;5.95;3.63;;;;;;;;;;6242753;28;20326;-76
2023/07/02 17:04:19;;;;;;;;;;;;;;;;;;6242139;28;20215;-76
2023/07/02 17:07:20;;;;;;;8.80;4.00;;;;;;;;;;6243221;28;19917;-77
2023/07/02 17:10:22;;;;;;;5.25;3.97;;;;;;;;;;6240949;28;20214;-77
2023/07/02 17:13:23;;;;;;;5.35;3.90;;;;;;;;;;6240256;28;20045;-76
2023/07/02 17:16:26;;;;;;;6.15;3.90;;;;;;;;;;6242881;28;20054;-77
2023/07/02 17:19:28;;;;;;;;;;;;;;;;;;6241782;28;20108;-76
2023/07/02 17:22:31;;;;;;;5.63;3.72;;;;;;;;;;6241040;28;19932;-76
2023/07/02 17:25:32;;;;;;;5.20;3.45;;;;;;;;;;6240858;28;20092;-77
2023/07/02 17:28:34;;;;;;;4.72;3.55;;;;;;;;;;6242616;28;20053;-76
2023/07/02 17:31:36;;;;;;;4.97;3.50;;;;;;;;;;6243152;28;20053;-76
2023/07/02 17:34:38;;;;;;;;;;;;;;;;;;6243891;28;20049;-76
2023/07/02 17:37:39;;;;;;;5.10;3.55;;;;;;;;;;6243099;28;19932;-77
2023/07/02 17:40:41;;;;;;;5.45;3.38;;;;;;;;;;6241026;28;20049;-77
2023/07/02 17:43:42;;;;;;;5.07;3.50;;;;;;;;;;6240615;28;20073;-76
2023/07/02 17:46:45;;;;;;;4.70;3.30;;;;;;;;;;6240977;28;20060;-76
2023/07/02 17:49:46;;;;;;;;;;;;;;;;;;6242001;28;20045;-77
2023/07/02 17:52:48;;;;;;;5.80;3.30;;;;;;;;;;6243952;28;20193;-77
2023/07/02 17:55:50;;;;;;;5.60;3.37;;;;;;;;;;6240709;28;20383;-77
2023/07/02 17:58:52;;;;;;;6.07;3.00;;;;;;;;;;6242880;28;20072;-77
2023/07/02 18:01:54;;;;;;;;;;;;;;;;;;6243654;28;20647;-77